sensor_id;sensor_type;location;lat;lon;timestamp;P1;durP1;ratioP1;P2;durP2;ratioP2
18695;SDS011;22617;43.690;27.956;2024-03-22T00:00:49;17.53;;;8.20;;
18695;SDS011;22617;43.690;27.956;2024-03-22T00:05:51;15.10;;;7.90;;
18695;SDS011;22617;43.690;27.956;2024-03-22T00:10:53;17.73;;;8.60;;
18695;SDS011;22617;43.690;27.956;2024-03-22T00:15:55;16.13;;;8.67;;
18695;SDS011;22617;43.690;27.956;2024-03-22T00:20:57;19.43;;;9.63;;
18695;SDS011;22617;43.690;27.956;2024-03-22T00:25:59;18.77;;;9.30;;
18695;SDS011;22617;43.690;27.956;2024-03-22T00:31:01;19.83;;;10.40;;
18695;SDS011;22617;43.690;27.956;2024-03-22T00:36:03;17.83;;;9.43;;
18695;SDS011;22617;43.690;27.956;2024-03-22T00:41:05;19.13;;;9.63;;
18695;SDS011;22617;43.690;27.956;2024-03-22T00:46:07;20.10;;;10.20;;
18695;SDS011;22617;43.690;27.956;2024-03-22T00:51:09;22.93;;;10.37;;
18695;SDS011;22617;43.690;27.956;2024-03-22T00:56:11;25.10;;;10.80;;
18695;SDS011;22617;43.690;27.956;2024-03-22T01:01:13;21.20;;;10.43;;
18695;SDS011;22617;43.690;27.956;2024-03-22T01:06:15;23.77;;;10.93;;
18695;SDS011;22617;43.690;27.956;2024-03-22T01:11:17;24.17;;;11.00;;
18695;SDS011;22617;43.690;27.956;2024-03-22T01:16:20;20.90;;;10.07;;
18695;SDS011;22617;43.690;27.956;2024-03-22T01:21:22;22.33;;;10.67;;
18695;SDS011;22617;43.690;27.956;2024-03-22T01:26:25;22.67;;;10.73;;
18695;SDS011;22617;43.690;27.956;2024-03-22T01:31:27;24.20;;;11.47;;
18695;SDS011;22617;43.690;27.956;2024-03-22T01:36:29;24.27;;;10.57;;
18695;SDS011;22617;43.690;27.956;2024-03-22T01:41:31;23.77;;;10.50;;
18695;SDS011;22617;43.690;27.956;2024-03-22T01:46:33;21.93;;;11.03;;
18695;SDS011;22617;43.690;27.956;2024-03-22T01:51:35;23.50;;;11.03;;
18695;SDS011;22617;43.690;27.956;2024-03-22T01:56:37;23.30;;;11.03;;
18695;SDS011;22617;43.690;27.956;2024-03-22T02:01:40;23.03;;;11.97;;
18695;SDS011;22617;43.690;27.956;2024-03-22T02:06:42;24.13;;;11.30;;
18695;SDS011;22617;43.690;27.956;2024-03-22T02:11:44;23.13;;;10.70;;
18695;SDS011;22617;43.690;27.956;2024-03-22T02:16:47;23.43;;;11.43;;
18695;SDS011;22617;43.690;27.956;2024-03-22T02:21:49;23.70;;;11.97;;
18695;SDS011;22617;43.690;27.956;2024-03-22T02:26:51;28.20;;;12.50;;
18695;SDS011;22617;43.690;27.956;2024-03-22T02:31:53;28.63;;;13.17;;
18695;SDS011;22617;43.690;27.956;2024-03-22T02:36:55;24.37;;;11.67;;
18695;SDS011;22617;43.690;27.956;2024-03-22T02:41:57;33.77;;;11.83;;
18695;SDS011;22617;43.690;27.956;2024-03-22T02:46:59;28.83;;;11.60;;
18695;SDS011;22617;43.690;27.956;2024-03-22T02:52:01;29.90;;;11.63;;
18695;SDS011;22617;43.690;27.956;2024-03-22T02:57:03;27.67;;;12.30;;
18695;SDS011;22617;43.690;27.956;2024-03-22T03:02:05;26.00;;;11.10;;
18695;SDS011;22617;43.690;27.956;2024-03-22T03:07:07;28.10;;;12.33;;
18695;SDS011;22617;43.690;27.956;2024-03-22T03:12:09;28.13;;;12.13;;
18695;SDS011;22617;43.690;27.956;2024-03-22T03:17:11;39.70;;;11.90;;
18695;SDS011;22617;43.690;27.956;2024-03-22T03:22:13;24.00;;;11.30;;
18695;SDS011;22617;43.690;27.956;2024-03-22T03:27:15;27.10;;;10.77;;
18695;SDS011;22617;43.690;27.956;2024-03-22T03:32:17;23.70;;;10.93;;
18695;SDS011;22617;43.690;27.956;2024-03-22T03:37:19;31.50;;;10.33;;
18695;SDS011;22617;43.690;27.956;2024-03-22T03:42:21;20.30;;;9.70;;
18695;SDS011;22617;43.690;27.956;2024-03-22T03:47:23;25.90;;;9.70;;
18695;SDS011;22617;43.690;27.956;2024-03-22T03:52:25;29.97;;;10.30;;
18695;SDS011;22617;43.690;27.956;2024-03-22T03:57:27;30.00;;;10.43;;
18695;SDS011;22617;43.690;27.956;2024-03-22T04:02:29;37.97;;;10.07;;
18695;SDS011;22617;43.690;27.956;2024-03-22T04:07:31;33.67;;;9.80;;
18695;SDS011;22617;43.690;27.956;2024-03-22T04:12:33;65.83;;;11.23;;
18695;SDS011;22617;43.690;27.956;2024-03-22T04:17:35;63.07;;;11.60;;
18695;SDS011;22617;43.690;27.956;2024-03-22T04:22:37;64.23;;;12.10;;
18695;SDS011;22617;43.690;27.956;2024-03-22T04:27:39;21.37;;;9.17;;
18695;SDS011;22617;43.690;27.956;2024-03-22T04:32:41;40.83;;;9.67;;
18695;SDS011;22617;43.690;27.956;2024-03-22T04:37:43;35.63;;;8.50;;
18695;SDS011;22617;43.690;27.956;2024-03-22T04:42:45;45.73;;;9.07;;
18695;SDS011;22617;43.690;27.956;2024-03-22T04:47:47;38.87;;;10.07;;
18695;SDS011;22617;43.690;27.956;2024-03-22T04:52:49;43.43;;;9.17;;
18695;SDS011;22617;43.690;27.956;2024-03-22T04:57:51;32.13;;;8.17;;
18695;SDS011;22617;43.690;27.956;2024-03-22T05:02:53;31.03;;;9.43;;
18695;SDS011;22617;43.690;27.956;2024-03-22T05:07:55;39.93;;;9.60;;
18695;SDS011;22617;43.690;27.956;2024-03-22T05:12:57;45.20;;;11.13;;
18695;SDS011;22617;43.690;27.956;2024-03-22T05:17:59;30.73;;;9.23;;
18695;SDS011;22617;43.690;27.956;2024-03-22T05:23:01;28.90;;;9.03;;
18695;SDS011;22617;43.690;27.956;2024-03-22T05:28:03;28.10;;;8.70;;
18695;SDS011;22617;43.690;27.956;2024-03-22T05:33:05;22.43;;;8.97;;
18695;SDS011;22617;43.690;27.956;2024-03-22T05:38:07;19.60;;;8.50;;
18695;SDS011;22617;43.690;27.956;2024-03-22T05:43:09;27.43;;;10.77;;
18695;SDS011;22617;43.690;27.956;2024-03-22T05:48:11;21.47;;;9.10;;
18695;SDS011;22617;43.690;27.956;2024-03-22T05:53:13;21.43;;;9.47;;
18695;SDS011;22617;43.690;27.956;2024-03-22T05:58:15;20.40;;;9.20;;
18695;SDS011;22617;43.690;27.956;2024-03-22T06:03:17;20.23;;;10.40;;
18695;SDS011;22617;43.690;27.956;2024-03-22T06:08:19;20.40;;;9.40;;
18695;SDS011;22617;43.690;27.956;2024-03-22T06:13:21;19.87;;;9.27;;
18695;SDS011;22617;43.690;27.956;2024-03-22T06:18:23;20.80;;;9.50;;
18695;SDS011;22617;43.690;27.956;2024-03-22T06:23:25;22.67;;;10.10;;
18695;SDS011;22617;43.690;27.956;2024-03-22T06:28:27;20.07;;;10.13;;
18695;SDS011;22617;43.690;27.956;2024-03-22T06:33:30;17.70;;;9.00;;
18695;SDS011;22617;43.690;27.956;2024-03-22T06:38:32;19.43;;;9.67;;
18695;SDS011;22617;43.690;27.956;2024-03-22T06:43:34;18.13;;;8.33;;
18695;SDS011;22617;43.690;27.956;2024-03-22T06:48:36;20.47;;;9.83;;
18695;SDS011;22617;43.690;27.956;2024-03-22T06:53:38;18.60;;;9.43;;
18695;SDS011;22617;43.690;27.956;2024-03-22T06:58:40;16.80;;;8.03;;
18695;SDS011;22617;43.690;27.956;2024-03-22T07:03:42;20.17;;;9.97;;
18695;SDS011;22617;43.690;27.956;2024-03-22T07:08:46;20.07;;;10.53;;
18695;SDS011;22617;43.690;27.956;2024-03-22T07:13:48;19.83;;;10.47;;
18695;SDS011;22617;43.690;27.956;2024-03-22T07:18:49;19.23;;;9.33;;
18695;SDS011;22617;43.690;27.956;2024-03-22T07:23:51;21.83;;;10.87;;
18695;SDS011;22617;43.690;27.956;2024-03-22T07:28:53;19.40;;;10.47;;
18695;SDS011;22617;43.690;27.956;2024-03-22T07:33:55;16.37;;;9.03;;
18695;SDS011;22617;43.690;27.956;2024-03-22T07:38:57;15.83;;;9.33;;
18695;SDS011;22617;43.690;27.956;2024-03-22T07:43:59;16.87;;;9.03;;
18695;SDS011;22617;43.690;27.956;2024-03-22T07:49:03;17.53;;;8.80;;
18695;SDS011;22617;43.690;27.956;2024-03-22T07:54:05;18.23;;;9.93;;
18695;SDS011;22617;43.690;27.956;2024-03-22T07:59:06;17.20;;;9.73;;
18695;SDS011;22617;43.690;27.956;2024-03-22T08:04:08;20.60;;;10.87;;
18695;SDS011;22617;43.690;27.956;2024-03-22T08:09:10;16.30;;;8.67;;
18695;SDS011;22617;43.690;27.956;2024-03-22T08:14:12;17.50;;;8.83;;
18695;SDS011;22617;43.690;27.956;2024-03-22T08:19:14;15.47;;;8.73;;
18695;SDS011;22617;43.690;27.956;2024-03-22T08:24:18;15.87;;;8.47;;
18695;SDS011;22617;43.690;27.956;2024-03-22T08:29:20;16.43;;;9.57;;
18695;SDS011;22617;43.690;27.956;2024-03-22T08:34:22;17.47;;;9.00;;
18695;SDS011;22617;43.690;27.956;2024-03-22T08:39:24;15.93;;;9.10;;
18695;SDS011;22617;43.690;27.956;2024-03-22T08:44:26;15.20;;;8.70;;
18695;SDS011;22617;43.690;27.956;2024-03-22T08:49:28;16.07;;;9.30;;
18695;SDS011;22617;43.690;27.956;2024-03-22T08:54:30;18.33;;;9.70;;
18695;SDS011;22617;43.690;27.956;2024-03-22T08:59:33;17.50;;;9.30;;
18695;SDS011;22617;43.690;27.956;2024-03-22T09:04:35;17.63;;;9.07;;
18695;SDS011;22617;43.690;27.956;2024-03-22T09:09:37;17.77;;;9.20;;
18695;SDS011;22617;43.690;27.956;2024-03-22T09:14:39;18.97;;;9.47;;
18695;SDS011;22617;43.690;27.956;2024-03-22T09:19:41;17.53;;;9.23;;
18695;SDS011;22617;43.690;27.956;2024-03-22T09:24:43;17.43;;;9.27;;
18695;SDS011;22617;43.690;27.956;2024-03-22T09:29:45;22.43;;;10.23;;
18695;SDS011;22617;43.690;27.956;2024-03-22T09:34:50;16.10;;;9.17;;
18695;SDS011;22617;43.690;27.956;2024-03-22T09:39:52;13.37;;;8.10;;
18695;SDS011;22617;43.690;27.956;2024-03-22T09:44:54;14.57;;;8.23;;
18695;SDS011;22617;43.690;27.956;2024-03-22T09:49:56;13.37;;;8.10;;
18695;SDS011;22617;43.690;27.956;2024-03-22T09:54:58;14.30;;;7.60;;
18695;SDS011;22617;43.690;27.956;2024-03-22T10:00:07;15.63;;;8.53;;
18695;SDS011;22617;43.690;27.956;2024-03-22T10:05:13;17.40;;;10.10;;
18695;SDS011;22617;43.690;27.956;2024-03-22T10:10:15;15.83;;;9.50;;
18695;SDS011;22617;43.690;27.956;2024-03-22T10:15:17;17.97;;;10.00;;
18695;SDS011;22617;43.690;27.956;2024-03-22T10:20:19;15.00;;;8.73;;
18695;SDS011;22617;43.690;27.956;2024-03-22T10:25:22;15.67;;;8.83;;
18695;SDS011;22617;43.690;27.956;2024-03-22T10:30:24;12.87;;;8.20;;
18695;SDS011;22617;43.690;27.956;2024-03-22T10:35:27;13.47;;;8.13;;
18695;SDS011;22617;43.690;27.956;2024-03-22T10:40:29;14.37;;;8.43;;
18695;SDS011;22617;43.690;27.956;2024-03-22T10:45:32;13.00;;;7.47;;
18695;SDS011;22617;43.690;27.956;2024-03-22T10:50:35;11.73;;;6.97;;
18695;SDS011;22617;43.690;27.956;2024-03-22T10:55:43;12.47;;;6.63;;
18695;SDS011;22617;43.690;27.956;2024-03-22T11:00:50;11.00;;;6.47;;
18695;SDS011;22617;43.690;27.956;2024-03-22T11:05:54;11.67;;;6.47;;
18695;SDS011;22617;43.690;27.956;2024-03-22T11:11:09;11.63;;;6.40;;
18695;SDS011;22617;43.690;27.956;2024-03-22T11:16:11;8.83;;;6.00;;
18695;SDS011;22617;43.690;27.956;2024-03-22T11:21:14;8.83;;;5.90;;
18695;SDS011;22617;43.690;27.956;2024-03-22T11:26:16;9.97;;;6.23;;
18695;SDS011;22617;43.690;27.956;2024-03-22T11:31:18;10.63;;;6.10;;
18695;SDS011;22617;43.690;27.956;2024-03-22T11:36:25;12.27;;;6.90;;
18695;SDS011;22617;43.690;27.956;2024-03-22T11:41:28;8.47;;;5.67;;
18695;SDS011;22617;43.690;27.956;2024-03-22T11:46:33;8.77;;;5.67;;
18695;SDS011;22617;43.690;27.956;2024-03-22T11:51:35;10.43;;;6.50;;
18695;SDS011;22617;43.690;27.956;2024-03-22T11:56:37;13.30;;;6.87;;
18695;SDS011;22617;43.690;27.956;2024-03-22T12:01:41;10.30;;;6.50;;
18695;SDS011;22617;43.690;27.956;2024-03-22T12:06:46;8.90;;;6.10;;
18695;SDS011;22617;43.690;27.956;2024-03-22T12:11:48;7.60;;;4.80;;
18695;SDS011;22617;43.690;27.956;2024-03-22T12:16:50;10.33;;;6.10;;
18695;SDS011;22617;43.690;27.956;2024-03-22T12:21:52;11.83;;;6.30;;
18695;SDS011;22617;43.690;27.956;2024-03-22T12:26:54;9.73;;;6.23;;
18695;SDS011;22617;43.690;27.956;2024-03-22T12:31:56;10.43;;;6.40;;
18695;SDS011;22617;43.690;27.956;2024-03-22T12:36:58;10.23;;;6.57;;
18695;SDS011;22617;43.690;27.956;2024-03-22T12:41:59;11.80;;;7.07;;
18695;SDS011;22617;43.690;27.956;2024-03-22T12:47:01;9.63;;;6.33;;
18695;SDS011;22617;43.690;27.956;2024-03-22T12:52:04;10.77;;;7.03;;
18695;SDS011;22617;43.690;27.956;2024-03-22T12:57:06;9.93;;;6.23;;
18695;SDS011;22617;43.690;27.956;2024-03-22T13:02:08;8.87;;;5.53;;
18695;SDS011;22617;43.690;27.956;2024-03-22T13:07:10;11.07;;;6.90;;
18695;SDS011;22617;43.690;27.956;2024-03-22T13:12:12;9.53;;;6.43;;
18695;SDS011;22617;43.690;27.956;2024-03-22T13:17:14;11.73;;;6.80;;
18695;SDS011;22617;43.690;27.956;2024-03-22T13:22:16;10.33;;;7.03;;
18695;SDS011;22617;43.690;27.956;2024-03-22T13:27:18;7.43;;;5.57;;
18695;SDS011;22617;43.690;27.956;2024-03-22T13:32:23;8.83;;;6.20;;
18695;SDS011;22617;43.690;27.956;2024-03-22T13:37:25;8.83;;;6.47;;
18695;SDS011;22617;43.690;27.956;2024-03-22T13:42:27;10.37;;;7.33;;
18695;SDS011;22617;43.690;27.956;2024-03-22T13:47:29;12.03;;;8.27;;
18695;SDS011;22617;43.690;27.956;2024-03-22T13:52:31;10.70;;;7.47;;
18695;SDS011;22617;43.690;27.956;2024-03-22T13:57:33;13.53;;;7.60;;
18695;SDS011;22617;43.690;27.956;2024-03-22T14:02:35;12.77;;;8.23;;
18695;SDS011;22617;43.690;27.956;2024-03-22T14:07:37;9.73;;;6.67;;
18695;SDS011;22617;43.690;27.956;2024-03-22T14:12:40;9.27;;;6.33;;
18695;SDS011;22617;43.690;27.956;2024-03-22T14:17:42;9.20;;;6.53;;
18695;SDS011;22617;43.690;27.956;2024-03-22T14:22:45;9.37;;;6.53;;
18695;SDS011;22617;43.690;27.956;2024-03-22T14:27:48;9.00;;;6.50;;
18695;SDS011;22617;43.690;27.956;2024-03-22T14:32:50;6.93;;;5.30;;
18695;SDS011;22617;43.690;27.956;2024-03-22T14:37:52;7.57;;;6.30;;
18695;SDS011;22617;43.690;27.956;2024-03-22T14:42:54;7.77;;;6.03;;
18695;SDS011;22617;43.690;27.956;2024-03-22T14:47:56;7.13;;;5.83;;
18695;SDS011;22617;43.690;27.956;2024-03-22T14:52:58;8.20;;;6.30;;
18695;SDS011;22617;43.690;27.956;2024-03-22T14:58:00;9.00;;;5.30;;
18695;SDS011;22617;43.690;27.956;2024-03-22T15:03:03;7.30;;;5.90;;
18695;SDS011;22617;43.690;27.956;2024-03-22T15:08:05;8.10;;;5.77;;
18695;SDS011;22617;43.690;27.956;2024-03-22T15:13:07;6.23;;;5.13;;
18695;SDS011;22617;43.690;27.956;2024-03-22T15:18:09;8.40;;;5.40;;
18695;SDS011;22617;43.690;27.956;2024-03-22T15:23:11;7.23;;;5.00;;
18695;SDS011;22617;43.690;27.956;2024-03-22T15:28:13;6.07;;;4.13;;
18695;SDS011;22617;43.690;27.956;2024-03-22T15:33:16;10.93;;;6.37;;
18695;SDS011;22617;43.690;27.956;2024-03-22T15:38:17;7.33;;;4.83;;
18695;SDS011;22617;43.690;27.956;2024-03-22T15:43:20;11.80;;;6.67;;
18695;SDS011;22617;43.690;27.956;2024-03-22T15:48:22;11.17;;;7.10;;
18695;SDS011;22617;43.690;27.956;2024-03-22T15:53:24;10.47;;;6.37;;
18695;SDS011;22617;43.690;27.956;2024-03-22T15:58:26;8.90;;;5.13;;
18695;SDS011;22617;43.690;27.956;2024-03-22T16:03:30;7.97;;;5.00;;
18695;SDS011;22617;43.690;27.956;2024-03-22T16:08:32;9.27;;;5.50;;
18695;SDS011;22617;43.690;27.956;2024-03-22T16:13:34;8.23;;;4.77;;
18695;SDS011;22617;43.690;27.956;2024-03-22T16:18:36;8.37;;;4.67;;
18695;SDS011;22617;43.690;27.956;2024-03-22T16:23:38;8.37;;;4.77;;
18695;SDS011;22617;43.690;27.956;2024-03-22T16:28:40;7.27;;;4.20;;
18695;SDS011;22617;43.690;27.956;2024-03-22T16:33:42;7.10;;;4.57;;
18695;SDS011;22617;43.690;27.956;2024-03-22T16:38:45;9.73;;;4.80;;
18695;SDS011;22617;43.690;27.956;2024-03-22T16:43:47;8.10;;;4.50;;
18695;SDS011;22617;43.690;27.956;2024-03-22T16:48:49;9.03;;;4.60;;
18695;SDS011;22617;43.690;27.956;2024-03-22T16:53:51;8.27;;;4.97;;
18695;SDS011;22617;43.690;27.956;2024-03-22T16:58:52;7.73;;;4.17;;
18695;SDS011;22617;43.690;27.956;2024-03-22T17:03:55;8.60;;;4.80;;
18695;SDS011;22617;43.690;27.956;2024-03-22T17:08:57;6.80;;;4.10;;
18695;SDS011;22617;43.690;27.956;2024-03-22T17:13:59;6.83;;;4.50;;
18695;SDS011;22617;43.690;27.956;2024-03-22T17:19:02;7.30;;;3.97;;
18695;SDS011;22617;43.690;27.956;2024-03-22T17:24:04;12.67;;;5.10;;
18695;SDS011;22617;43.690;27.956;2024-03-22T17:29:07;9.87;;;5.03;;
18695;SDS011;22617;43.690;27.956;2024-03-22T17:34:10;10.10;;;5.07;;
18695;SDS011;22617;43.690;27.956;2024-03-22T17:39:13;9.90;;;5.00;;
18695;SDS011;22617;43.690;27.956;2024-03-22T17:44:16;7.97;;;4.83;;
18695;SDS011;22617;43.690;27.956;2024-03-22T17:49:18;7.63;;;4.40;;
18695;SDS011;22617;43.690;27.956;2024-03-22T17:54:21;12.10;;;6.00;;
18695;SDS011;22617;43.690;27.956;2024-03-22T17:59:25;10.43;;;5.40;;
18695;SDS011;22617;43.690;27.956;2024-03-22T18:04:27;11.00;;;6.10;;
18695;SDS011;22617;43.690;27.956;2024-03-22T18:09:29;11.40;;;6.63;;
18695;SDS011;22617;43.690;27.956;2024-03-22T18:14:31;13.53;;;7.70;;
18695;SDS011;22617;43.690;27.956;2024-03-22T18:19:33;11.20;;;6.50;;
18695;SDS011;22617;43.690;27.956;2024-03-22T18:24:35;9.57;;;6.13;;
18695;SDS011;22617;43.690;27.956;2024-03-22T18:29:38;13.87;;;7.60;;
18695;SDS011;22617;43.690;27.956;2024-03-22T18:34:40;14.90;;;7.23;;
18695;SDS011;22617;43.690;27.956;2024-03-22T18:39:42;13.30;;;7.10;;
18695;SDS011;22617;43.690;27.956;2024-03-22T18:44:45;14.03;;;7.53;;
18695;SDS011;22617;43.690;27.956;2024-03-22T18:49:47;13.10;;;6.70;;
18695;SDS011;22617;43.690;27.956;2024-03-22T18:54:56;16.20;;;8.00;;
18695;SDS011;22617;43.690;27.956;2024-03-22T18:59:59;15.47;;;7.43;;
18695;SDS011;22617;43.690;27.956;2024-03-22T19:05:01;13.47;;;7.03;;
18695;SDS011;22617;43.690;27.956;2024-03-22T19:10:05;16.03;;;8.07;;
18695;SDS011;22617;43.690;27.956;2024-03-22T19:15:08;14.67;;;7.43;;
18695;SDS011;22617;43.690;27.956;2024-03-22T19:20:10;17.50;;;8.17;;
18695;SDS011;22617;43.690;27.956;2024-03-22T19:25:14;22.60;;;11.20;;
18695;SDS011;22617;43.690;27.956;2024-03-22T19:30:16;19.77;;;10.03;;
18695;SDS011;22617;43.690;27.956;2024-03-22T19:35:23;18.60;;;9.33;;
18695;SDS011;22617;43.690;27.956;2024-03-22T19:40:25;17.20;;;9.07;;
18695;SDS011;22617;43.690;27.956;2024-03-22T19:45:27;14.87;;;7.87;;
18695;SDS011;22617;43.690;27.956;2024-03-22T19:50:29;15.07;;;7.70;;
18695;SDS011;22617;43.690;27.956;2024-03-22T19:55:31;17.27;;;8.00;;
18695;SDS011;22617;43.690;27.956;2024-03-22T20:00:33;13.57;;;7.73;;
18695;SDS011;22617;43.690;27.956;2024-03-22T20:05:36;16.53;;;7.80;;
18695;SDS011;22617;43.690;27.956;2024-03-22T20:10:38;25.13;;;11.00;;
18695;SDS011;22617;43.690;27.956;2024-03-22T20:15:40;18.30;;;8.90;;
18695;SDS011;22617;43.690;27.956;2024-03-22T20:20:43;17.90;;;8.73;;
18695;SDS011;22617;43.690;27.956;2024-03-22T20:25:45;13.77;;;7.43;;
18695;SDS011;22617;43.690;27.956;2024-03-22T20:30:48;14.47;;;6.93;;
18695;SDS011;22617;43.690;27.956;2024-03-22T20:35:50;14.77;;;6.70;;
